Time;durP1;ratioP1;P1;durP2;ratioP2;P2;SDS_P1;SDS_P2;PMS_P1;PMS_P2;Temp;Humidity;BMP_temperature;BMP_pressure;BME280_temperature;BME280_humidity;BME280_pressure;Samples;Min_cycle;Max_cycle;Signal;HPM_P1;HPM_P2
2023/10/05 00:02:29;;;;;;;;;;;;;;;16.34;100.00;102251.22;5048592;28;20029;-65
2023/10/05 00:04:29;;;;;;;15.75;2.05;;;;;;;16.31;100.00;102251.31;5037106;28;20382;-65
2023/10/05 00:06:56;;;;;;;8.63;2.08;;;;;;;16.29;100.00;102246.06;5047954;28;20132;-66
2023/10/05 00:09:24;;;;;;;8.48;2.28;;;;;;;16.26;100.00;102248.81;5046039;28;20510;-71
2023/10/05 00:11:53;;;;;;;12.57;2.33;;;;;;;16.20;100.00;102249.06;5046983;28;20035;-68
2023/10/05 00:14:18;;;;;;;6.53;1.67;;;;;;;16.25;100.00;102249.75;5046954;28;20032;-67
2023/10/05 00:16:44;;;;;;;8.82;1.80;;;;;;;16.21;100.00;102250.78;5046944;28;20013;-67
2023/10/05 00:19:12;;;;;;;13.82;2.38;;;;;;;16.25;100.00;102249.75;5047731;28;20029;-68
2023/10/05 00:21:47;;;;;;;16.65;2.10;;;;;;;16.21;100.00;102245.47;5029686;28;20412;-66
2023/10/05 00:24:12;;;;;;;9.38;2.50;;;;;;;16.26;100.00;102250.63;5047578;28;20036;-70
2023/10/05 00:26:39;;;;;;;9.30;2.20;;;;;;;16.18;100.00;102240.25;5048053;28;20020;-68
2023/10/05 00:29:12;;;;;;;8.63;2.33;;;;;;;16.23;100.00;102238.31;5047600;28;20446;-67
2023/10/05 00:31:41;;;;;;;12.43;2.50;;;;;;;16.27;100.00;102247.03;5046915;28;20573;-67
2023/10/05 00:34:13;;;;;;;;;;;;;;;16.31;100.00;102250.47;5048042;28;20029;-70
2023/10/05 00:36:43;;;;;;;11.40;1.98;;;;;;;16.31;100.00;102250.47;5047714;28;19958;-66
2023/10/05 00:39:09;;;;;;;7.53;2.10;;;;;;;16.29;100.00;102246.06;5047134;28;20029;-69
2023/10/05 00:41:35;;;;;;;9.05;1.95;;;;;;;16.32;100.00;102238.91;5047111;28;20105;-67
2023/10/05 00:44:01;;;;;;;8.68;1.80;;;;;;;16.29;100.00;102247.88;5029285;28;20024;-61
2023/10/05 00:46:26;;;;;;;7.57;2.28;;;;;;;16.34;100.00;102251.22;5047680;28;20025;-68
2023/10/05 00:49:05;;;;;;;10.70;2.22;;;;;;;16.31;100.00;102256.66;5029812;28;20025;-69
2023/10/05 00:51:36;;;;;;;9.85;2.22;;;;;;;16.26;100.00;102261.28;5047407;28;20029;-70
2023/10/05 00:54:05;;;;;;;10.40;1.95;;;;;;;16.26;100.00;102254.16;5030128;28;20080;-70
2023/10/05 00:56:35;;;;;;;10.45;2.38;;;;;;;16.16;100.00;102269.56;5009926;28;20064;-68
2023/10/05 00:59:06;;;;;;;10.60;2.45;;;;;;;16.14;100.00;102274.06;5026783;28;20032;-71
2023/10/05 01:01:36;;;;;;;14.93;2.60;;;;;;;16.11;100.00;102266.22;5026785;28;20030;-70
2023/10/05 01:06:48;;;;;;;9.00;2.15;;;;;;;16.26;100.00;102258.63;5026660;28;20475;-68
2023/10/05 01:11:54;;;;;;;14.25;2.60;;;;;;;16.22;100.00;102252.53;5094499;23;20060;-69
2023/10/05 01:14:23;;;;;;;15.23;2.33;;;;;;;16.28;100.00;102252.31;5067170;28;20029;-67
2023/10/05 01:16:48;;;;;;;11.48;2.40;;;;;;;16.34;100.00;102245.91;5067260;28;20271;-66
2023/10/05 01:19:14;;;;;;;8.52;2.08;;;;;;;16.40;100.00;102239.47;5067503;28;20032;-64
2023/10/05 01:21:43;;;;;;;8.07;2.63;;;;;;;16.48;100.00;102239.22;5067264;28;20462;-68
2023/10/05 01:24:10;;;;;;;12.85;2.53;;;;;;;16.46;100.00;102243.75;5066250;28;20017;-68
2023/10/05 01:26:37;;;;;;;8.27;2.10;;;;;;;16.45;100.00;102239.31;5067683;28;20090;-67
2023/10/05 01:29:03;;;;;;;15.43;2.92;;;;;;;16.51;100.00;102239.09;5067142;28;20115;-68
2023/10/05 01:31:29;;;;;;;13.07;2.42;;;;;;;16.46;100.00;102249.06;5068017;28;20112;-69
2023/10/05 01:33:55;;;;;;;6.65;2.10;;;;;;;16.41;100.00;102246.56;5069017;28;20078;-68
2023/10/05 01:36:23;;;;;;;8.70;2.20;;;;;;;16.33;100.00;102238.84;5070873;28;20040;-66
2023/10/05 01:38:48;;;;;;;10.50;2.35;;;;;;;16.42;100.00;102241.19;5070558;28;20423;-69
2023/10/05 01:41:20;;;;;;;17.40;2.53;;;;;;;16.42;100.00;102249.16;5071398;28;20071;-68
2023/10/05 01:43:46;;;;;;;10.43;2.38;;;;;;;16.42;100.00;102249.16;5071034;28;20040;-65
2023/10/05 01:46:12;;;;;;;12.98;2.03;;;;;;;16.43;100.00;102258.00;5071033;28;20032;-67
2023/10/05 01:48:38;;;;;;;9.05;2.47;;;;;;;16.47;100.00;102256.09;5071073;28;20051;-68
2023/10/05 01:51:47;;;;;;;10.45;2.35;;;;;;;16.43;99.56;102255.34;5052663;28;20052;-68
2023/10/05 01:53:52;;;;;;;8.80;2.15;;;;;;;16.50;98.59;102253.34;5056313;28;20032;-64
2023/10/05 01:56:20;;;;;;;13.32;2.42;;;;;;;16.49;98.44;102246.25;5070297;28;20540;-67
2023/10/05 01:58:50;;;;;;;9.50;2.47;;;;;;;16.51;98.11;102253.28;5070601;28;20521;-66
2023/10/05 02:01:16;;;;;;;9.18;2.33;;;;;;;16.52;97.29;102241.72;5069022;28;20036;-68
2023/10/05 02:03:42;;;;;;;14.15;2.15;;;;;;;16.42;97.06;102248.28;5070222;28;20531;-67
2023/10/05 02:06:11;;;;;;;9.02;2.63;;;;;;;16.53;96.82;102256.72;5069636;28;20016;-70
2023/10/05 02:08:37;;;;;;;14.20;2.50;;;;;;;16.49;96.40;102238.28;5070591;28;20029;-68
2023/10/05 02:11:04;;;;;;;10.18;2.47;;;;;;;16.55;96.05;102238.94;5069341;28;20063;-68
2023/10/05 02:13:31;;;;;;;10.65;2.22;;;;;;;16.60;96.09;102245.88;5070547;28;20068;-66
2023/10/05 02:15:59;;;;;;;8.90;2.33;;;;;;;16.63;95.82;102236.00;5070784;28;20398;-65
2023/10/05 02:18:24;;;;;;;8.40;2.13;;;;;;;16.65;96.21;102235.94;5052254;28;20027;-69
2023/10/05 02:20:57;;;;;;;12.82;2.78;;;;;;;16.65;97.21;102230.63;5070609;28;20025;-63
2023/10/05 02:23:25;;;;;;;8.07;2.15;;;;;;;16.61;97.72;102223.66;5052660;28;20397;-68
2023/10/05 02:28:45;;;;;;;8.02;2.35;;;;;;;16.59;98.84;102221.06;5054452;28;20104;-63
2023/10/05 02:31:12;;;;;;;10.38;2.40;;;;;;;16.50;99.68;102232.91;5069692;28;20040;-69
2023/10/05 02:33:40;;;;;;;12.20;2.88;;;;;;;16.46;100.00;102222.47;5052460;28;20382;-68
2023/10/05 02:36:11;;;;;;;10.32;2.42;;;;;;;16.43;100.00;102220.75;5069046;28;20024;-66
2023/10/05 02:38:47;;;;;;;7.85;2.58;;;;;;;16.42;100.00;102217.25;5068497;28;20028;-69
2023/10/05 02:41:13;;;;;;;14.90;2.80;;;;;;;16.34;100.00;102213.97;5069934;28;20037;-68
2023/10/05 02:43:39;;;;;;;15.15;2.92;;;;;;;16.32;100.00;102214.97;5069533;28;20039;-67
2023/10/05 02:46:10;;;;;;;7.03;2.08;;;;;;;16.32;100.00;102214.97;5068346;28;20578;-66
2023/10/05 02:48:36;;;;;;;8.35;2.53;;;;;;;16.23;100.00;102221.50;5069070;28;20017;-69
2023/10/05 02:51:05;;;;;;;12.45;2.50;;;;;;;16.15;100.00;102219.97;5069309;28;20025;-68
2023/10/05 02:53:37;;;;;;;;;;;;;;;16.12;100.00;102224.53;5069082;28;20063;-67
2023/10/05 02:56:03;;;;;;;12.40;2.92;;;;;;;16.01;100.00;102216.91;5068714;28;19919;-68
2023/10/05 02:58:29;;;;;;;10.65;2.58;;;;;;;15.91;100.00;102227.84;5069594;28;20032;-67
2023/10/05 03:00:54;;;;;;;8.40;2.30;;;;;;;15.91;100.00;102217.22;5069352;28;20025;-69
2023/10/05 03:03:20;;;;;;;10.45;3.08;;;;;;;15.82;100.00;102216.66;5069568;28;20097;-63
2023/10/05 03:05:45;;;;;;;9.27;2.67;;;;;;;15.81;100.00;102220.25;5068596;28;20099;-68
2023/10/05 03:08:10;;;;;;;8.13;2.20;;;;;;;15.75;100.00;102213.34;5068025;28;20064;-71
2023/10/05 03:10:37;;;;;;;8.38;2.53;;;;;;;15.71;100.00;102214.38;5068813;28;20024;-67
2023/10/05 03:13:03;;;;;;;12.68;2.55;;;;;;;15.62;100.00;102219.06;5068371;28;20052;-67
2023/10/05 03:15:29;;;;;;;8.23;2.47;;;;;;;15.59;100.00;102221.81;5051264;28;20558;-66
2023/10/05 03:17:57;;;;;;;6.13;1.75;;;;;;;15.58;100.00;102217.44;5068344;28;20032;-68
2023/10/05 03:20:24;;;;;;;10.80;2.28;;;;;;;15.50;100.00;102217.69;5069256;28;20162;-68
2023/10/05 03:22:54;;;;;;;8.95;2.40;;;;;;;15.56;100.00;102221.91;5067970;28;20024;-68
2023/10/05 03:25:20;;;;;;;10.13;2.70;;;;;;;15.49;100.00;102223.03;5069138;28;20482;-67
2023/10/05 03:27:46;;;;;;;10.38;2.22;;;;;;;15.46;100.00;102225.81;5069418;28;20024;-67
2023/10/05 03:30:14;;;;;;;10.18;2.42;;;;;;;15.47;100.00;102211.63;5071294;28;20024;-73
2023/10/05 03:32:40;;;;;;;9.77;2.20;;;;;;;15.50;100.00;102217.69;5070189;28;20533;-64
2023/10/05 03:35:09;;;;;;;9.40;2.30;;;;;;;15.50;100.00;102219.50;5070339;28;20064;-68
2023/10/05 03:37:34;;;;;;;9.43;2.40;;;;;;;15.49;100.00;102215.09;5069385;28;20020;-69
2023/10/05 03:42:28;;;;;;;12.18;2.53;;;;;;;15.43;100.00;102215.28;5051505;28;20036;-67
2023/10/05 03:45:01;;;;;;;14.57;2.70;;;;;;;15.44;100.00;102211.72;5069143;28;20035;-68
2023/10/05 03:47:27;;;;;;;8.05;2.63;;;;;;;15.44;100.00;102206.41;5069609;28;20541;-68
2023/10/05 03:49:55;;;;;;;6.38;2.00;;;;;;;15.42;100.00;102214.44;5067560;28;20036;-69
2023/10/05 03:52:21;;;;;;;12.23;2.60;;;;;;;15.40;100.00;102206.50;5068407;28;20028;-69
2023/10/05 03:54:47;;;;;;;8.23;2.25;;;;;;;15.45;100.00;102210.78;5067345;28;20325;-69
2023/10/05 03:57:13;;;;;;;16.33;2.55;;;;;;;15.41;100.00;102216.19;5067498;28;20048;-60
2023/10/05 03:59:39;;;;;;;7.00;2.42;;;;;;;15.40;100.00;102219.78;5067862;28;20078;-68
2023/10/05 04:02:07;;;;;;;10.00;2.58;;;;;;;15.41;100.00;102218.84;5067973;28;20442;-59
2023/10/05 04:04:36;;;;;;;14.87;3.00;;;;;;;15.39;100.00;102215.38;5067317;28;20385;-66
2023/10/05 04:07:03;;;;;;;10.23;2.85;;;;;;;15.38;100.00;102212.78;5067483;28;20051;-68
2023/10/05 04:09:33;;;;;;;13.27;2.22;;;;;;;15.35;100.00;102215.53;5069350;28;20031;-67
2023/10/05 04:12:00;;;;;;;9.13;2.35;;;;;;;15.29;100.00;102219.25;5069431;28;20517;-62
2023/10/05 04:14:26;;;;;;;8.68;2.20;;;;;;;15.26;100.00;102219.38;5069119;28;20016;-67
2023/10/05 04:16:53;;;;;;;16.08;2.47;;;;;;;15.33;100.00;102220.91;5068543;28;20097;-65
2023/10/05 04:19:19;;;;;;;12.40;2.85;;;;;;;15.33;100.00;102218.25;5068994;28;20040;-65
2023/10/05 04:21:45;;;;;;;19.38;2.95;;;;;;;15.33;100.00;102220.91;5067875;28;20051;-67
2023/10/05 04:24:14;;;;;;;15.38;2.42;;;;;;;15.33;100.00;102210.28;5070077;28;20055;-62
2023/10/05 04:26:44;;;;;;;9.75;2.45;;;;;;;15.29;100.00;102219.25;5069696;28;20059;-67
2023/10/05 04:29:10;;;;;;;11.48;2.65;;;;;;;15.27;100.00;102215.78;5069614;28;20052;-68
2023/10/05 04:31:36;;;;;;;10.48;2.58;;;;;;;15.25;100.00;102217.59;5067432;28;20467;-66
2023/10/05 04:34:05;;;;;;;8.63;2.17;;;;;;;15.26;100.00;102214.06;5068811;28;20055;-67
2023/10/05 04:36:30;;;;;;;17.58;2.58;;;;;;;15.25;100.00;102210.53;5049580;28;20479;-64
2023/10/05 04:38:56;;;;;;;15.27;2.70;;;;;;;15.28;100.00;102213.09;5067796;28;20131;-66
2023/10/05 04:41:28;;;;;;;9.40;2.10;;;;;;;15.27;100.00;102211.31;5067462;28;20154;-67
2023/10/05 04:43:57;;;;;;;8.63;2.38;;;;;;;15.29;100.00;102205.97;5066955;28;20121;-69
2023/10/05 04:46:22;;;;;;;11.02;2.67;;;;;;;15.29;100.00;102213.94;5068510;28;20021;-69
2023/10/05 04:51:32;;;;;;;15.32;2.20;;;;;;;15.16;100.00;102213.47;5067611;28;21606;-65
2023/10/05 04:53:59;;;;;;;13.75;2.58;;;;;;;15.21;100.00;102216.84;5065974;28;20039;-67
2023/10/05 04:56:36;;;;;;;15.70;2.72;;;;;;;15.19;100.00;102213.38;5068299;28;20021;-70
2023/10/05 05:05:31;;;;;;;7.97;2.38;;;;;;;15.09;100.00;102223.41;5066803;28;20032;-68
2023/10/05 05:07:10;;;;;;;7.88;2.80;;;;;;;15.09;100.00;102225.19;5048001;28;20591;-67
2023/10/05 05:09:45;;;;;;;8.15;2.30;;;;;;;15.07;100.00;102222.59;5069882;28;20020;-68
2023/10/05 05:12:16;;;;;;;10.43;2.33;;;;;;;15.05;100.00;102221.75;5070918;28;20127;-66
2023/10/05 05:14:43;;;;;;;7.88;1.95;;;;;;;15.00;100.00;102227.22;5070654;28;20028;-68
2023/10/05 05:17:18;;;;;;;14.35;2.78;;;;;;;14.97;100.00;102219.34;5070304;28;20015;-64
2023/10/05 05:19:44;;;;;;;6.90;2.03;;;;;;;14.98;100.00;102226.38;5070204;28;20078;-67
2023/10/05 05:22:11;;;;;;;12.20;2.72;;;;;;;14.90;100.00;102223.13;5069809;28;20021;-68
2023/10/05 05:24:37;;;;;;;9.60;2.42;;;;;;;14.99;100.00;102237.88;5070515;28;20020;-69
2023/10/05 05:27:21;;;;;;;11.27;3.15;;;;;;;14.99;100.00;102235.22;5070241;28;20029;-70
2023/10/05 05:29:47;;;;;;;7.63;2.20;;;;;;;14.98;100.00;102244.97;5070450;28;20070;-68
2023/10/05 05:32:13;;;;;;;8.73;2.35;;;;;;;14.95;100.00;102247.72;5070751;28;20031;-68
2023/10/05 05:34:42;;;;;;;11.48;2.30;;;;;;;14.97;100.00;102239.72;5069508;28;20450;-69
2023/10/05 05:37:13;;;;;;;12.88;2.72;;;;;;;14.99;100.00;102240.53;5051995;28;20498;-68
2023/10/05 05:39:39;;;;;;;9.98;2.42;;;;;;;14.94;100.00;102243.31;5070035;28;20020;-69
2023/10/05 05:42:14;;;;;;;9.98;2.10;;;;;;;14.95;100.00;102241.53;5068748;28;20047;-66
2023/10/05 05:44:43;;;;;;;13.32;2.65;;;;;;;14.97;100.00;102245.91;5049673;28;20115;-69
2023/10/05 05:47:17;;;;;;;8.32;2.20;;;;;;;14.93;100.00;102238.91;5070049;28;20017;-69
2023/10/05 05:49:46;;;;;;;12.10;2.83;;;;;;;14.94;100.00;102238.03;5068697;28;20016;-63
2023/10/05 05:52:13;;;;;;;11.02;2.55;;;;;;;14.97;100.00;102251.19;5069245;28;20020;-67
2023/10/05 05:54:39;;;;;;;6.95;2.25;;;;;;;14.97;100.00;102239.72;5069339;28;20394;-69
2023/10/05 05:57:08;;;;;;;16.73;2.33;;;;;;;15.00;100.00;102250.22;5069923;28;20020;-66
2023/10/05 05:59:38;;;;;;;;;;;;;;;14.98;100.00;102247.63;5070784;28;20031;-65
2023/10/05 06:02:06;;;;;;;13.75;2.47;;;;;;;15.00;100.00;102240.50;5070525;28;20006;-72
2023/10/05 06:04:35;;;;;;;6.30;1.92;;;;;;;15.00;100.00;102242.28;5070068;28;20032;-65
2023/10/05 06:07:01;;;;;;;7.68;2.30;;;;;;;15.00;100.00;102239.63;5068141;28;20487;-66
2023/10/05 06:09:32;;;;;;;18.88;2.60;;;;;;;15.03;100.00;102239.53;5069648;28;20013;-68
2023/10/05 06:11:59;;;;;;;11.48;2.67;;;;;;;15.06;100.00;102244.75;5068583;28;20056;-68
2023/10/05 06:14:25;;;;;;;9.20;2.40;;;;;;;15.09;100.00;102235.81;5069651;28;20427;-66
2023/10/05 06:16:52;;;;;;;11.27;2.22;;;;;;;15.09;100.00;102242.00;5068566;28;20112;-63
2023/10/05 06:19:18;;;;;;;6.75;1.98;;;;;;;15.16;100.00;102246.19;5069245;28;20075;-68
2023/10/05 06:21:45;;;;;;;9.35;2.33;;;;;;;15.19;100.00;102255.84;5067874;28;20032;-64
2023/10/05 06:24:10;;;;;;;10.73;2.38;;;;;;;15.21;100.00;102250.50;5069939;28;20037;-69
2023/10/05 06:26:37;;;;;;;9.38;2.30;;;;;;;15.24;100.00;102256.59;5068803;28;20380;-66
2023/10/05 06:29:05;;;;;;;11.43;2.72;;;;;;;15.28;100.00;102255.56;5069228;28;20040;-69
2023/10/05 06:31:30;;;;;;;6.78;2.17;;;;;;;15.32;100.00;102266.94;5067968;28;20024;-68
2023/10/05 06:33:55;;;;;;;9.82;2.80;;;;;;;15.38;100.00;102274.72;5068429;28;20028;-64
2023/10/05 06:36:21;;;;;;;10.90;2.25;;;;;;;15.38;100.00;102277.38;5067936;28;20399;-69
2023/10/05 06:38:47;;;;;;;10.45;2.30;;;;;;;15.47;100.00;102278.03;5067509;28;20017;-68
2023/10/05 06:41:19;;;;;;;10.60;2.40;;;;;;;15.54;100.00;102279.56;5070056;28;20478;-64
2023/10/05 06:43:46;;;;;;;7.93;2.03;;;;;;;15.54;100.00;102279.56;5068150;28;20025;-68
2023/10/05 06:46:17;;;;;;;9.82;2.22;;;;;;;15.55;100.00;102281.28;5068592;28;20024;-68
2023/10/05 06:48:43;;;;;;;12.98;2.80;;;;;;;15.62;100.00;102284.63;5068857;28;20099;-66
2023/10/05 06:51:09;;;;;;;13.18;2.38;;;;;;;15.65;100.00;102280.09;5048927;28;20115;-64
2023/10/05 06:53:34;;;;;;;9.73;2.08;;;;;;;15.76;100.00;102286.81;5068397;28;20032;-67
2023/10/05 06:55:59;;;;;;;12.00;2.45;;;;;;;15.79;100.00;102298.25;5066883;28;20075;-68
2023/10/05 06:58:26;;;;;;;7.78;1.90;;;;;;;15.87;100.00;102300.63;5066848;28;20024;-67
2023/10/05 07:00:52;;;;;;;9.82;2.28;;;;;;;15.94;100.00;102313.72;5067564;28;20111;-69
2023/10/05 07:03:17;;;;;;;7.43;2.25;;;;;;;15.98;100.00;102310.09;5068427;28;20021;-70
2023/10/05 07:05:42;;;;;;;11.02;2.60;;;;;;;16.06;100.00;102316.00;5069382;28;20039;-64
2023/10/05 07:08:08;;;;;;;7.97;2.20;;;;;;;16.08;100.00;102310.63;5067781;28;20025;-69
2023/10/05 07:10:33;;;;;;;7.95;2.30;;;;;;;16.08;100.00;102318.63;5051474;28;20119;-66
2023/10/05 07:12:58;;;;;;;8.95;2.20;;;;;;;16.10;100.00;102317.63;5070417;28;20086;-66
2023/10/05 07:15:24;;;;;;;6.72;1.92;;;;;;;16.11;100.00;102327.38;5072020;28;20455;-65
2023/10/05 07:17:50;;;;;;;9.30;2.60;;;;;;;16.20;100.00;102338.59;5070642;28;20025;-67
2023/10/05 07:20:16;;;;;;;9.90;2.53;;;;;;;16.23;100.00;102338.50;5071061;28;20118;-66
2023/10/05 07:22:43;;;;;;;10.40;2.35;;;;;;;16.31;100.00;102341.75;5070657;28;20269;-67
2023/10/05 07:25:10;;;;;;;8.32;2.45;;;;;;;16.37;100.00;102341.56;5071704;28;20022;-69
2023/10/05 07:27:36;;;;;;;11.30;2.45;;;;;;;16.46;100.00;102347.50;5070799;28;20046;-68
2023/10/05 07:30:03;;;;;;;14.52;2.50;;;;;;;16.53;100.00;102347.19;5069990;28;20111;-67
2023/10/05 07:32:30;;;;;;;10.30;2.17;;;;;;;16.70;100.00;102343.06;5070220;28;20027;-67
2023/10/05 07:34:55;;;;;;;10.70;2.50;;;;;;;16.77;100.00;102341.06;5070231;28;20029;-66
2023/10/05 07:37:20;;;;;;;17.23;2.80;;;;;;;16.85;100.00;102339.00;5069989;28;20032;-70
2023/10/05 07:39:46;;;;;;;6.97;2.30;;;;;;;16.97;100.00;102339.44;5069999;28;20103;-69
2023/10/05 07:42:12;;;;;;;8.90;2.40;;;;;;;17.04;100.00;102346.31;5071881;28;20029;-68
2023/10/05 07:44:38;;;;;;;9.02;2.47;;;;;;;17.10;100.00;102348.75;5070193;28;20036;-66
2023/10/05 07:47:05;;;;;;;8.85;2.33;;;;;;;17.23;100.00;102353.63;5070592;28;20101;-68
2023/10/05 07:49:30;;;;;;;8.98;2.50;;;;;;;17.32;100.00;102358.59;5068665;28;20108;-65
2023/10/05 07:51:56;;;;;;;12.02;1.92;;;;;;;17.35;100.00;102352.28;5066042;28;20111;-71
2023/10/05 07:54:22;;;;;;;6.30;2.20;;;;;;;17.41;100.00;102355.59;5067197;28;20044;-65
2023/10/05 07:56:47;;;;;;;8.40;1.98;;;;;;;17.55;100.00;102363.03;5066766;28;20538;-69
2023/10/05 07:59:16;;;;;;;11.32;2.28;;;;;;;17.67;100.00;102375.00;5067297;28;20031;-70
2023/10/05 08:01:41;;;;;;;12.48;2.35;;;;;;;17.85;100.00;102369.00;5049283;28;20067;-73
2023/10/05 08:04:11;;;;;;;10.07;2.20;;;;;;;17.96;100.00;102372.09;5066236;28;20084;-68
2023/10/05 08:06:37;;;;;;;8.18;2.55;;;;;;;18.08;100.00;102376.06;5067451;28;20008;-69
2023/10/05 08:09:05;;;;;;;8.48;1.98;;;;;;;18.19;100.00;102380.97;5050925;28;20052;-69
2023/10/05 08:11:32;;;;;;;9.43;2.53;;;;;;;18.29;100.00;102370.78;5067235;28;20487;-69
2023/10/05 08:13:57;;;;;;;9.68;2.70;;;;;;;18.38;100.00;102377.53;5068574;28;20041;-69
2023/10/05 08:16:23;;;;;;;9.90;2.25;;;;;;;18.41;100.00;102383.63;5065274;28;20105;-69
2023/10/05 08:18:49;;;;;;;11.23;2.40;;;;;;;18.29;100.00;102379.66;5067096;28;20093;-70
2023/10/05 08:21:14;;;;;;;10.90;2.13;;;;;;;18.34;100.00;102371.47;5065495;28;20033;-66
2023/10/05 08:23:39;;;;;;;10.50;3.00;;;;;;;18.35;100.00;102381.19;5067806;28;20012;-70
2023/10/05 08:26:07;;;;;;;11.40;2.83;;;;;;;18.30;100.00;102383.19;5066264;28;20060;-67
2023/10/05 08:28:32;;;;;;;10.00;2.22;;;;;;;18.35;100.00;102399.88;5066338;28;20368;-69
2023/10/05 08:31:07;;;;;;;6.22;2.42;;;;;;;18.37;100.00;102394.47;5066990;28;20411;-69
2023/10/05 08:33:37;;;;;;;9.65;2.70;;;;;;;18.44;100.00;102402.16;5067358;28;20024;-68
2023/10/05 08:36:06;;;;;;;10.82;2.13;;;;;;;18.43;100.00;102405.75;5049538;28;20021;-64
2023/10/05 08:38:33;;;;;;;9.85;2.47;;;;;;;18.47;100.00;102401.16;5066066;28;20028;-69
2023/10/05 08:41:01;;;;;;;12.48;2.35;;;;;;;18.46;100.00;102406.56;5049444;28;20024;-70
2023/10/05 08:43:26;;;;;;;11.38;2.38;;;;;;;18.35;100.00;102407.00;5065239;28;20059;-69
2023/10/05 08:45:54;;;;;;;11.50;3.70;;;;;;;18.29;100.00;102413.47;5049633;28;20060;-68
2023/10/05 08:48:35;;;;;;;12.57;2.47;;;;;;;18.18;100.00;102409.44;5066096;28;20024;-67
2023/10/05 08:51:12;;;;;;;9.27;2.50;;;;;;;17.77;100.00;102420.84;5046408;28;20031;-72
2023/10/05 08:53:49;;;;;;;12.32;2.53;;;;;;;17.83;100.00;102419.72;5064443;28;20112;-66
2023/10/05 08:56:18;;;;;;;11.90;2.28;;;;;;;17.93;100.00;102417.56;5066715;28;20086;-68
2023/10/05 08:58:45;;;;;;;;;;;;;;;17.99;100.00;102427.97;5067320;28;20116;-62
2023/10/05 09:01:30;;;;;;;11.40;2.70;;;;;;;17.91;100.00;102432.75;5066837;28;19912;-69
2023/10/05 09:04:12;;;;;;;11.48;2.70;;;;;;;17.93;100.00;102445.09;5048675;28;20113;-69
2023/10/05 09:06:49;;;;;;;10.80;2.90;;;;;;;18.03;100.00;102442.91;5047874;28;20502;-67
2023/10/05 09:09:15;;;;;;;12.45;2.92;;;;;;;18.13;100.00;102453.25;5066181;28;20037;-69
2023/10/05 09:11:41;;;;;;;17.02;3.40;;;;;;;18.17;100.00;102454.84;5067342;28;20017;-65
2023/10/05 09:16:58;;;;;;;9.98;2.67;;;;;;;18.27;100.00;102452.72;5067211;28;20130;-68
2023/10/05 09:19:26;;;;;;;14.10;2.80;;;;;;;18.36;100.00;102448.78;5065997;28;20032;-67
2023/10/05 09:21:59;;;;;;;14.93;2.63;;;;;;;18.39;100.00;102454.84;5065557;28;20051;-67
2023/10/05 09:24:25;;;;;;;10.63;2.88;;;;;;;18.46;100.00;102443.91;5066813;28;20025;-67
2023/10/05 09:26:52;;;;;;;17.13;3.13;;;;;;;18.55;100.00;102454.22;5067076;28;20399;-69
2023/10/05 09:29:20;;;;;;;10.80;2.53;;;;;;;18.55;100.00;102462.22;5066467;28;20059;-67
2023/10/05 09:31:50;;;;;;;11.88;2.55;;;;;;;18.52;100.00;102455.22;5048816;28;20067;-69
2023/10/05 09:34:35;;;;;;;11.32;2.90;;;;;;;18.60;100.00;102446.88;5067962;28;20025;-68
2023/10/05 09:37:05;;;;;;;9.57;2.80;;;;;;;18.64;100.00;102456.50;5066258;28;20052;-70
2023/10/05 09:39:34;;;;;;;10.98;2.45;;;;;;;18.59;100.00;102461.16;5067368;28;20024;-63
2023/10/05 09:42:01;;;;;;;12.27;2.63;;;;;;;18.61;100.00;102459.31;5048416;28;20075;-67
2023/10/05 09:44:30;;;;;;;17.17;3.08;;;;;;;18.61;100.00;102461.09;5049080;28;20044;-67
2023/10/05 09:46:58;;;;;;;14.23;3.10;;;;;;;18.67;100.00;102459.00;5049935;28;20024;-65
2023/10/05 09:49:26;;;;;;;13.00;2.33;;;;;;;18.70;100.00;102474.06;5050288;28;20060;-71
2023/10/05 09:51:54;;;;;;;10.68;2.60;;;;;;;18.87;100.00;102459.97;5046540;28;20422;-66
2023/10/05 09:54:22;;;;;;;11.85;2.67;;;;;;;18.86;100.00;102463.59;5067339;28;20368;-63
2023/10/05 09:56:48;;;;;;;14.45;2.88;;;;;;;19.03;100.00;102467.31;5068008;28;20108;-66
2023/10/05 09:59:18;;;;;;;12.13;2.90;;;;;;;18.93;100.00;102465.03;5068793;28;20028;-67
2023/10/05 10:01:47;;;;;;;9.20;2.45;;;;;;;18.96;100.00;102469.38;5016521;28;20127;-65
2023/10/05 10:04:28;;;;;;;10.13;2.90;;;;;;;19.07;100.00;102468.91;5050356;28;20021;-66
2023/10/05 10:06:54;;;;;;;14.68;3.33;;;;;;;19.14;100.00;102473.06;5048886;28;20032;-66
2023/10/05 10:09:26;;;;;;;13.25;2.58;;;;;;;19.18;100.00;102468.47;5063392;28;20025;-68
2023/10/05 10:11:52;;;;;;;8.32;2.50;;;;;;;19.27;99.26;102467.19;5053788;28;20027;-63
2023/10/05 10:14:22;;;;;;;17.23;3.17;;;;;;;19.27;99.30;102472.53;5058547;28;20407;-68
2023/10/05 10:16:53;;;;;;;13.25;2.78;;;;;;;19.37;97.66;102471.19;5067473;28;20382;-68
2023/10/05 10:19:19;;;;;;;12.50;3.33;;;;;;;19.53;97.35;102468.66;5069382;28;20020;-67
2023/10/05 10:21:46;;;;;;;10.32;2.70;;;;;;;19.68;96.49;102466.22;5068484;28;20051;-67
2023/10/05 10:24:17;;;;;;;14.43;2.22;;;;;;;19.60;95.33;102463.91;5069274;28;20451;-64
2023/10/05 10:27:07;;;;;;;10.15;2.67;;;;;;;19.61;95.48;102470.13;5069529;28;20051;-67
2023/10/05 10:29:53;;;;;;;10.63;2.83;;;;;;;19.66;95.23;102460.09;5069031;28;20024;-66
2023/10/05 10:32:19;;;;;;;9.57;2.63;;;;;;;19.59;95.86;102464.84;5069197;28;20071;-67
2023/10/05 10:34:55;;;;;;;8.10;2.25;;;;;;;19.52;95.14;102471.41;5068245;28;20476;-69
2023/10/05 10:37:40;;;;;;;12.57;2.85;;;;;;;19.59;94.42;102472.84;5068379;28;20028;-67
2023/10/05 10:40:24;;;;;;;12.35;2.78;;;;;;;19.58;94.30;102481.81;5069353;28;20029;-62
2023/10/05 10:42:53;;;;;;;16.73;2.72;;;;;;;19.59;95.25;102466.66;5068341;28;20016;-64
2023/10/05 10:45:28;;;;;;;6.78;2.17;;;;;;;19.45;93.62;102477.03;5069143;28;20027;-63
2023/10/05 10:47:54;;;;;;;9.70;2.50;;;;;;;19.40;94.03;102481.75;5067880;28;20055;-66
2023/10/05 10:50:30;;;;;;;14.65;2.55;;;;;;;19.50;92.96;102462.63;5066379;28;20390;-67
2023/10/05 10:52:58;;;;;;;8.45;2.45;;;;;;;19.73;92.47;102476.69;5068643;28;20447;-67
2023/10/05 10:55:30;;;;;;;8.85;2.67;;;;;;;19.73;91.16;102466.00;5067791;28;20427;-66
2023/10/05 10:57:57;;;;;;;9.20;2.60;;;;;;;19.66;89.07;102462.75;5050356;28;20071;-66
2023/10/05 11:03:11;;;;;;;9.43;2.38;;;;;;;19.76;91.83;102479.22;5066823;28;20035;-68
2023/10/05 11:05:41;;;;;;;19.95;2.60;;;;;;;19.65;92.08;102475.25;5048589;28;20009;-65
2023/10/05 11:08:13;;;;;;;7.97;2.22;;;;;;;19.51;93.22;102467.84;5068330;28;20029;-65
2023/10/05 11:10:40;;;;;;;14.35;2.83;;;;;;;19.59;93.11;102467.50;5068046;28;20463;-69
2023/10/05 11:13:14;;;;;;;12.85;2.42;;;;;;;19.72;92.50;102466.94;5062151;28;20037;-71
2023/10/05 11:15:49;;;;;;;9.75;2.78;;;;;;;19.59;90.02;102472.00;5067464;28;20167;-69
2023/10/05 11:18:18;;;;;;;9.55;2.22;;;;;;;19.54;90.50;102458.84;5067960;28;20032;-70
2023/10/05 11:20:51;;;;;;;12.75;2.65;;;;;;;19.69;91.46;102465.28;5066012;28;20111;-65
2023/10/05 11:23:21;;;;;;;9.35;2.45;;;;;;;20.02;90.63;102461.09;5063925;28;20020;-75
2023/10/05 11:25:51;;;;;;;9.60;2.90;;;;;;;20.42;88.96;102459.13;5067408;28;20024;-73
2023/10/05 11:28:24;;;;;;;8.55;2.78;;;;;;;20.62;88.05;102459.06;5067668;28;20021;-72
2023/10/05 11:30:49;;;;;;;10.10;2.38;;;;;;;20.73;85.83;102462.06;5067533;28;20090;-70
2023/10/05 11:33:17;;;;;;;10.32;2.63;;;;;;;20.79;86.57;102455.50;5067588;28;20468;-67
2023/10/05 11:35:53;;;;;;;10.82;2.30;;;;;;;20.81;82.49;102467.03;5067125;28;20032;-68
2023/10/05 11:38:21;;;;;;;9.73;2.63;;;;;;;20.88;81.41;102468.44;5064346;28;20028;-70
2023/10/05 11:40:49;;;;;;;7.55;2.30;;;;;;;20.74;81.68;102465.59;5066839;28;20016;-71
2023/10/05 11:43:22;;;;;;;7.18;2.63;;;;;;;20.79;81.18;102464.41;5048965;28;20097;-68
2023/10/05 11:46:00;;;;;;;9.63;2.55;;;;;;;20.61;83.64;102462.66;5067803;28;20032;-66